Time;durP1;ratioP1;P1;durP2;ratioP2;P2;SDS_P1;SDS_P2;PMS_P1;PMS_P2;Temp;Humidity;BMP_temperature;BMP_pressure;BME280_temperature;BME280_humidity;BME280_pressure;Samples;Min_cycle;Max_cycle;Signal;HPM_P1;HPM_P2
2023/04/24 00:00:09;;;;;;;2.95;1.48;;;;;;;13.62;74.18;99988.59;7394107;19;20098;-63
2023/04/24 00:02:39;;;;;;;2.10;1.13;;;;;;;13.62;74.54;99995.72;7391603;19;20025;-63
2023/04/24 00:05:07;;;;;;;1.52;1.10;;;;;;;13.67;73.69;99990.78;7392588;19;20026;-61
2023/04/24 00:07:35;;;;;;;3.60;1.35;;;;;;;13.58;73.46;99991.69;7396111;19;20018;-61
2023/04/24 00:10:02;;;;;;;1.38;1.10;;;;;;;13.59;73.18;99983.56;7393520;19;20531;-61
2023/04/24 00:12:30;;;;;;;3.00;1.50;;;;;;;13.68;72.99;99983.63;7391772;19;20382;-62
2023/04/24 00:14:57;;;;;;;1.88;1.17;;;;;;;13.72;72.51;99980.50;7393170;19;20110;-62
2023/04/24 00:17:24;;;;;;;3.45;1.30;;;;;;;13.66;73.35;99973.16;7393843;19;20374;-62
2023/04/24 00:19:57;;;;;;;3.15;1.27;;;;;;;13.69;73.06;99966.69;7393183;19;20025;-62
2023/04/24 00:22:26;;;;;;;2.25;1.20;;;;;;;13.68;72.98;99973.81;7391531;19;20448;-63
2023/04/24 00:24:53;;;;;;;3.25;1.50;;;;;;;13.68;72.90;99962.34;7392310;19;20014;-62
2023/04/24 00:27:20;;;;;;;3.65;1.35;;;;;;;13.67;72.85;99963.34;7393515;19;20384;-62
2023/04/24 00:29:48;;;;;;;3.42;1.33;;;;;;;13.69;72.36;99972.84;7391105;19;20090;-62
2023/04/24 00:32:15;;;;;;;1.90;1.40;;;;;;;13.64;72.30;99973.28;7392794;19;20023;-63
2023/04/24 00:34:42;;;;;;;3.17;1.50;;;;;;;13.58;72.81;99971.25;7390674;19;20022;-62
2023/04/24 00:37:09;;;;;;;2.72;1.60;;;;;;;13.52;72.70;99963.88;7393253;19;20023;-62
2023/04/24 00:39:36;;;;;;;2.80;1.50;;;;;;;13.48;72.94;99957.19;7391892;19;20014;-63
2023/04/24 00:42:05;;;;;;;2.13;1.42;;;;;;;13.50;72.74;99965.00;7391502;19;20082;-62
2023/04/24 00:44:35;;;;;;;2.70;1.20;;;;;;;13.46;71.93;99968.94;7392124;19;20035;-62
2023/04/24 00:47:03;;;;;;;2.08;1.20;;;;;;;13.51;71.01;99978.16;7392717;19;20010;-62
2023/04/24 00:49:30;;;;;;;2.17;1.30;;;;;;;13.50;70.16;99959.69;7392957;19;20041;-62
2023/04/24 00:51:59;;;;;;;2.40;1.05;;;;;;;13.39;69.23;99956.28;7392260;19;20027;-63
2023/04/24 00:54:26;;;;;;;1.10;1.00;;;;;;;13.40;68.59;99971.25;7390661;19;20042;-63
2023/04/24 00:56:53;;;;;;;1.75;0.90;;;;;;;13.35;68.32;99983.28;7391853;19;20015;-62
2023/04/24 00:59:20;;;;;;;2.03;0.90;;;;;;;13.21;68.13;99960.69;7391693;19;20039;-64
2023/04/24 01:01:47;;;;;;;1.42;0.90;;;;;;;13.26;67.76;99973.56;7390556;19;20035;-63
2023/04/24 01:04:15;;;;;;;0.88;0.80;;;;;;;13.19;67.50;99973.28;7388704;19;20086;-64
2023/04/24 01:06:44;;;;;;;2.17;0.88;;;;;;;13.25;67.05;99961.28;7391750;19;20049;-63
2023/04/24 01:09:12;;;;;;;0.70;0.60;;;;;;;13.40;66.56;99965.09;7391348;19;20018;-63
2023/04/24 01:11:42;;;;;;;1.98;0.82;;;;;;;13.35;66.03;99970.00;7392211;19;20090;-63
2023/04/24 01:14:09;;;;;;;0.82;0.80;;;;;;;13.34;66.37;99974.50;7390544;19;20035;-64
2023/04/24 01:16:38;;;;;;;2.72;0.90;;;;;;;13.26;66.37;99968.25;7391525;19;20024;-63
2023/04/24 01:19:10;;;;;;;1.50;1.00;;;;;;;13.14;66.90;99962.28;7390733;19;20022;-63
2023/04/24 01:21:38;;;;;;;1.75;1.10;;;;;;;13.10;66.46;99961.75;7391340;19;20019;-63
2023/04/24 01:24:05;;;;;;;1.13;1.00;;;;;;;13.12;66.71;99949.13;7389299;19;20038;-63
2023/04/24 01:26:33;;;;;;;1.10;1.00;;;;;;;13.12;66.59;99946.47;7390577;19;20047;-64
2023/04/24 01:29:00;;;;;;;3.35;1.00;;;;;;;13.22;66.23;99945.59;7390225;19;20014;-64
2023/04/24 01:31:28;;;;;;;1.00;0.90;;;;;;;13.23;66.48;99944.59;7389986;19;20345;-64
2023/04/24 01:33:56;;;;;;;1.00;0.90;;;;;;;13.19;66.28;99944.03;7388835;19;20083;-63
2023/04/24 01:36:25;;;;;;;1.35;0.95;;;;;;;13.16;66.36;99947.00;7390714;19;20492;-61
2023/04/24 01:38:52;;;;;;;1.05;0.90;;;;;;;13.07;66.58;99937.28;7390026;19;20014;-61
2023/04/24 01:41:20;;;;;;;0.88;0.85;;;;;;;13.12;66.38;99925.19;7391619;19;20098;-59
2023/04/24 01:43:48;;;;;;;1.00;0.90;;;;;;;13.17;65.96;99927.44;7389883;19;20022;-59
2023/04/24 01:46:15;;;;;;;1.00;0.90;;;;;;;13.22;65.83;99935.78;7387458;19;20437;-59
2023/04/24 01:48:45;;;;;;;1.75;0.90;;;;;;;13.17;66.08;99930.09;7391124;19;20018;-59
2023/04/24 01:51:12;;;;;;;1.15;0.80;;;;;;;13.21;65.83;99923.47;7390742;19;20022;-59
2023/04/24 01:53:39;;;;;;;2.28;1.08;;;;;;;13.16;66.06;99923.94;7389689;19;20464;-58
2023/04/24 01:56:06;;;;;;;1.88;1.00;;;;;;;13.17;65.70;99938.06;7389803;19;20048;-59
2023/04/24 01:58:33;;;;;;;1.90;1.00;;;;;;;13.23;65.49;99929.50;7390015;19;20093;-57
2023/04/24 02:01:01;;;;;;;1.55;1.10;;;;;;;13.18;65.72;99918.47;7390597;19;20192;-59
2023/04/24 02:03:28;;;;;;;1.02;0.85;;;;;;;13.21;65.16;99920.00;7389446;19;20018;-59
2023/04/24 02:05:55;;;;;;;1.23;0.88;;;;;;;13.14;65.19;99914.44;7387159;19;20031;-58
2023/04/24 02:08:22;;;;;;;1.92;0.95;;;;;;;13.16;65.00;99920.41;7389940;19;20011;-59
2023/04/24 02:10:49;;;;;;;1.65;1.00;;;;;;;13.22;64.66;99925.13;7389775;19;20014;-59
2023/04/24 02:13:16;;;;;;;1.63;0.90;;;;;;;13.18;64.81;99934.41;7387721;19;20098;-57
2023/04/24 02:15:43;;;;;;;2.50;1.10;;;;;;;13.11;64.97;99923.53;7396175;19;20015;-61
2023/04/24 02:18:11;;;;;;;1.25;0.80;;;;;;;13.26;64.59;99920.38;7397775;19;20049;-58
2023/04/24 02:20:38;;;;;;;2.45;0.98;;;;;;;13.30;64.22;99911.97;7395141;19;20011;-57
2023/04/24 02:23:05;;;;;;;2.65;1.00;;;;;;;13.22;64.61;99916.34;7396063;19;20022;-57
2023/04/24 02:25:33;;;;;;;1.15;0.90;;;;;;;13.21;64.96;99927.97;7395076;19;20110;-58
2023/04/24 02:28:00;;;;;;;1.77;1.20;;;;;;;13.23;64.73;99910.03;7397201;19;20022;-58
2023/04/24 02:30:27;;;;;;;1.60;1.10;;;;;;;13.21;64.70;99920.81;7395263;19;20026;-58
2023/04/24 02:32:55;;;;;;;2.22;1.15;;;;;;;13.14;64.88;99925.91;7396620;19;20022;-59
2023/04/24 02:35:22;;;;;;;1.45;1.10;;;;;;;13.23;64.76;99924.19;7395126;19;20025;-59
2023/04/24 02:37:49;;;;;;;1.90;1.20;;;;;;;13.16;65.14;99923.94;7396914;19;20043;-58
2023/04/24 02:40:16;;;;;;;2.00;1.50;;;;;;;13.04;65.82;99918.97;7396375;19;20470;-59
2023/04/24 02:42:43;;;;;;;2.38;1.70;;;;;;;12.95;66.41;99920.69;7395554;19;20039;-59
2023/04/24 02:45:10;;;;;;;2.97;1.77;;;;;;;12.90;66.72;99925.63;7394590;19;20033;-60
2023/04/24 02:47:37;;;;;;;3.05;2.00;;;;;;;12.86;67.26;99924.25;7396150;19;20030;-59
2023/04/24 02:50:05;;;;;;;2.90;1.63;;;;;;;12.84;67.28;99913.75;7396654;19;20023;-58
2023/04/24 02:52:32;;;;;;;4.78;1.80;;;;;;;12.97;67.38;99931.16;7395531;19;20094;-59
2023/04/24 02:54:58;;;;;;;1.90;1.70;;;;;;;12.82;67.69;99922.84;7396543;19;20082;-58
2023/04/24 02:57:25;;;;;;;4.60;1.85;;;;;;;12.75;67.88;99916.50;7394615;19;20035;-59
2023/04/24 02:59:52;;;;;;;4.85;2.05;;;;;;;12.72;68.10;99922.94;7396195;19;20024;-58
2023/04/24 03:02:20;;;;;;;3.03;2.10;;;;;;;12.79;68.16;99924.00;7395743;19;20078;-59
2023/04/24 03:04:48;;;;;;;3.30;2.05;;;;;;;12.84;67.78;99915.59;7395665;19;20521;-59
2023/04/24 03:07:15;;;;;;;3.42;2.00;;;;;;;12.84;67.87;99920.91;7395731;19;20114;-58
2023/04/24 03:09:42;;;;;;;3.00;2.10;;;;;;;12.93;67.47;99923.53;7395894;19;20018;-59
2023/04/24 03:12:09;;;;;;;3.17;2.20;;;;;;;12.80;67.79;99931.00;7395554;19;20035;-59
2023/04/24 03:14:36;;;;;;;3.30;1.98;;;;;;;12.84;67.69;99928.88;7393610;19;20614;-59
2023/04/24 03:17:03;;;;;;;2.85;1.92;;;;;;;12.88;67.69;99927.59;7394119;19;20015;-59
2023/04/24 03:19:29;;;;;;;2.33;2.05;;;;;;;12.80;67.81;99931.00;7396012;19;20089;-59
2023/04/24 03:21:56;;;;;;;3.35;1.85;;;;;;;12.73;67.75;99929.91;7393677;19;20019;-59
2023/04/24 03:24:23;;;;;;;3.15;2.00;;;;;;;12.82;67.76;99928.16;7387745;19;20029;-59
2023/04/24 03:26:50;;;;;;;3.00;1.80;;;;;;;12.79;67.83;99929.31;7391464;19;20015;-58
2023/04/24 03:29:17;;;;;;;3.97;1.90;;;;;;;12.82;67.94;99926.38;7393901;19;20015;-58
2023/04/24 03:31:44;;;;;;;3.78;1.90;;;;;;;12.91;67.71;99922.81;7393421;19;20022;-59
2023/04/24 03:34:11;;;;;;;4.80;2.20;;;;;;;12.96;67.09;99911.72;7390405;19;20029;-59
2023/04/24 03:36:38;;;;;;;2.70;2.10;;;;;;;12.95;67.21;99918.03;7395019;19;20483;-58
2023/04/24 03:39:05;;;;;;;3.97;2.10;;;;;;;12.85;67.48;99919.91;7395010;19;20032;-59
2023/04/24 03:41:32;;;;;;;4.03;2.20;;;;;;;12.90;66.96;99915.00;7393469;19;20014;-59
2023/04/24 03:43:59;;;;;;;2.58;2.10;;;;;;;12.96;66.72;99917.06;7393088;19;20021;-59
2023/04/24 03:46:26;;;;;;;3.78;2.45;;;;;;;13.00;66.38;99921.06;7392790;19;20081;-59
2023/04/24 03:48:53;;;;;;;3.20;2.20;;;;;;;12.91;66.57;99925.47;7394459;19;20014;-59
2023/04/24 03:51:20;;;;;;;4.32;2.00;;;;;;;12.92;66.31;99934.28;7392860;19;20471;-59
2023/04/24 03:53:47;;;;;;;5.55;2.03;;;;;;;12.87;66.54;99929.41;7391037;19;20019;-59
2023/04/24 03:56:13;;;;;;;3.38;2.10;;;;;;;12.87;66.39;99932.06;7394047;19;20014;-59
2023/04/24 03:58:41;;;;;;;2.83;2.10;;;;;;;12.86;66.14;99930.41;7394206;19;20023;-59
2023/04/24 04:01:07;;;;;;;3.45;2.08;;;;;;;12.85;66.37;99931.38;7394279;19;20014;-59
2023/04/24 04:03:35;;;;;;;3.38;2.08;;;;;;;12.93;65.83;99927.97;7392814;19;20089;-58
2023/04/24 04:06:02;;;;;;;2.88;2.03;;;;;;;12.96;65.89;99937.47;7393078;19;20483;-59
2023/04/24 04:08:29;;;;;;;3.50;2.30;;;;;;;12.96;65.99;99930.34;7393318;19;20018;-58
2023/04/24 04:10:56;;;;;;;3.13;2.00;;;;;;;12.91;65.93;99928.13;7392464;19;20014;-59
2023/04/24 04:13:23;;;;;;;4.00;1.95;;;;;;;12.92;66.23;99931.63;7392954;19;20078;-59
2023/04/24 04:15:50;;;;;;;5.63;2.08;;;;;;;13.00;65.42;99933.53;7391804;19;20483;-59
2023/04/24 04:18:17;;;;;;;3.60;1.80;;;;;;;13.04;65.33;99929.59;7393667;19;20033;-59
2023/04/24 04:20:44;;;;;;;3.35;2.03;;;;;;;13.04;65.20;99938.41;7392390;19;20026;-59
2023/04/24 04:23:11;;;;;;;2.72;1.90;;;;;;;12.93;65.48;99935.94;7392595;19;20770;-58
2023/04/24 04:25:38;;;;;;;3.15;1.90;;;;;;;12.87;65.20;99932.06;7392357;19;20022;-58
2023/04/24 04:28:05;;;;;;;4.85;2.10;;;;;;;12.90;65.16;99937.09;7392801;19;20015;-59
2023/04/24 04:30:32;;;;;;;4.32;2.10;;;;;;;12.88;65.14;99939.06;7393034;19;20035;-59
2023/04/24 04:32:59;;;;;;;2.70;1.85;;;;;;;12.91;64.89;99930.78;7392483;19;20022;-59
2023/04/24 04:35:26;;;;;;;2.72;1.88;;;;;;;12.85;65.07;99934.03;7393202;19;20018;-59
2023/04/24 04:37:53;;;;;;;4.95;1.88;;;;;;;12.87;64.81;99941.88;7390870;19;20027;-59
2023/04/24 04:40:20;;;;;;;3.53;1.92;;;;;;;12.90;64.46;99942.41;7392510;19;20093;-59
2023/04/24 04:42:47;;;;;;;4.03;2.13;;;;;;;12.98;63.98;99938.19;7392939;19;20015;-59
2023/04/24 04:45:16;;;;;;;4.40;1.85;;;;;;;12.97;63.64;99933.81;7392052;19;20039;-59
2023/04/24 04:47:44;;;;;;;3.13;1.83;;;;;;;12.88;63.87;99927.59;7392994;19;20044;-59
2023/04/24 04:50:11;;;;;;;4.47;1.90;;;;;;;12.88;63.85;99940.88;7392373;19;20409;-59
2023/04/24 04:52:38;;;;;;;4.50;1.95;;;;;;;12.95;63.43;99943.78;7392135;19;20472;-60
2023/04/24 04:55:06;;;;;;;3.70;2.03;;;;;;;12.98;63.13;99952.31;7392430;19;20014;-60
2023/04/24 04:57:33;;;;;;;5.63;2.03;;;;;;;12.93;63.29;99952.75;7390706;19;20047;-60
2023/04/24 05:00:00;;;;;;;4.80;1.90;;;;;;;12.91;62.99;99945.91;7391902;19;20014;-59
2023/04/24 05:02:27;;;;;;;3.60;1.80;;;;;;;12.88;63.06;99946.19;7391729;19;20049;-59
2023/04/24 05:04:54;;;;;;;3.22;2.03;;;;;;;12.90;63.28;99944.25;7392299;19;20014;-59
2023/04/24 05:07:21;;;;;;;4.15;2.00;;;;;;;13.05;63.01;99953.38;7389124;19;20018;-59
2023/04/24 05:09:48;;;;;;;3.20;2.00;;;;;;;13.03;62.49;99943.88;7392195;19;20015;-60
2023/04/24 05:12:15;;;;;;;3.75;2.20;;;;;;;12.92;62.65;99952.88;7391806;19;20023;-58
2023/04/24 05:14:42;;;;;;;5.25;2.00;;;;;;;12.86;62.67;99956.97;7391645;19;20022;-58
2023/04/24 05:17:08;;;;;;;5.65;2.08;;;;;;;12.80;62.89;99949.59;7392497;19;20078;-58
2023/04/24 05:19:37;;;;;;;7.18;2.03;;;;;;;12.93;62.68;99949.22;7390904;19;20018;-58
2023/04/24 05:22:06;;;;;;;9.23;2.40;;;;;;;12.97;62.60;99942.63;7392215;19;20018;-58
2023/04/24 05:24:34;;;;;;;6.72;2.28;;;;;;;13.06;62.26;99949.72;7391453;19;20018;-59
2023/04/24 05:27:02;;;;;;;5.15;2.33;;;;;;;13.00;62.23;99938.84;7390273;19;20049;-58
2023/04/24 05:29:30;;;;;;;7.00;2.60;;;;;;;13.09;61.81;99949.44;7390612;19;20024;-58
2023/04/24 05:31:58;;;;;;;5.20;2.30;;;;;;;13.09;61.80;99940.63;7391636;19;20011;-57
2023/04/24 05:34:25;;;;;;;6.10;2.55;;;;;;;13.00;62.36;99960.94;7389308;19;20037;-57
2023/04/24 05:36:52;;;;;;;4.80;2.92;;;;;;;12.98;62.27;99954.97;7391092;19;20029;-57
2023/04/24 05:39:19;;;;;;;6.85;3.10;;;;;;;12.99;62.46;99956.63;7390952;19;20018;-57
2023/04/24 05:41:46;;;;;;;7.20;3.25;;;;;;;13.05;62.40;99961.34;7391263;19;20047;-57
2023/04/24 05:44:13;;;;;;;6.03;3.45;;;;;;;12.91;62.77;99954.72;7389007;19;20055;-57
2023/04/24 05:46:40;;;;;;;7.10;3.50;;;;;;;12.90;62.96;99962.84;7389569;19;20023;-58
2023/04/24 05:49:07;;;;;;;5.45;3.42;;;;;;;13.09;62.64;99967.22;7390106;19;20011;-58
2023/04/24 05:51:35;;;;;;;9.85;3.97;;;;;;;12.99;62.86;99971.75;7390543;19;20019;-58
2023/04/24 05:54:02;;;;;;;7.22;4.20;;;;;;;12.97;62.48;99971.03;7388444;19;20015;-58
2023/04/24 05:56:30;;;;;;;7.93;4.00;;;;;;;13.11;62.29;99959.91;7390594;19;20023;-58
2023/04/24 05:58:57;;;;;;;7.32;4.45;;;;;;;13.15;62.07;99953.31;7390603;19;20090;-58
2023/04/24 06:01:24;;;;;;;7.25;4.50;;;;;;;13.02;62.60;99958.16;7391082;19;20018;-58
2023/04/24 06:03:54;;;;;;;8.90;4.40;;;;;;;13.14;62.28;99970.25;7388960;19;20015;-58
2023/04/24 06:06:21;;;;;;;7.43;4.50;;;;;;;13.25;62.44;99959.44;7389239;19;20018;-58
2023/04/24 06:08:48;;;;;;;7.70;4.68;;;;;;;13.28;62.66;99974.25;7390811;19;20023;-59
2023/04/24 06:11:15;;;;;;;8.18;4.50;;;;;;;13.18;62.76;99979.59;7390635;19;20026;-59
2023/04/24 06:13:42;;;;;;;6.75;4.18;;;;;;;13.07;62.73;99974.50;7389363;19;20464;-59
2023/04/24 06:16:09;;;;;;;8.52;4.57;;;;;;;13.06;62.72;99973.66;7389988;19;20026;-60
2023/04/24 06:18:36;;;;;;;8.32;4.53;;;;;;;13.12;63.29;99969.56;7390014;19;20046;-59
2023/04/24 06:21:03;;;;;;;7.72;4.20;;;;;;;13.26;62.85;99977.06;7389536;19;20023;-59
2023/04/24 06:23:32;;;;;;;7.90;4.28;;;;;;;13.21;62.89;99981.97;7388559;19;20018;-59
2023/04/24 06:25:59;;;;;;;8.50;4.35;;;;;;;13.14;63.04;99978.22;7388866;19;20098;-59
2023/04/24 06:28:26;;;;;;;7.05;4.20;;;;;;;13.05;63.40;99982.63;7389846;19;20457;-59
2023/04/24 06:30:53;;;;;;;8.57;4.60;;;;;;;13.14;63.19;99987.03;7389903;19;20094;-58
2023/04/24 06:33:20;;;;;;;12.65;4.60;;;;;;;13.14;63.13;99979.06;7388909;19;20032;-58
2023/04/24 06:35:49;;;;;;;8.90;4.22;;;;;;;13.14;63.06;99984.38;7389605;19;20018;-57
2023/04/24 06:38:16;;;;;;;10.32;4.57;;;;;;;13.14;63.01;99991.53;7389948;19;20025;-58
2023/04/24 06:40:43;;;;;;;7.15;4.35;;;;;;;13.21;62.84;99992.59;7388776;19;20481;-58
2023/04/24 06:43:10;;;;;;;9.07;4.80;;;;;;;13.22;62.77;99993.44;7388397;19;20014;-58
2023/04/24 06:45:39;;;;;;;10.07;5.50;;;;;;;13.07;63.24;99995.75;7388968;19;20090;-58
2023/04/24 06:48:06;;;;;;;9.85;5.28;;;;;;;13.02;63.42;99996.19;7389848;19;20035;-58
2023/04/24 06:50:33;;;;;;;10.77;5.13;;;;;;;13.02;63.32;99996.19;7388351;19;20094;-58
2023/04/24 06:53:00;;;;;;;8.82;5.00;;;;;;;13.05;63.45;100000.38;7388529;19;20101;-58
2023/04/24 06:55:27;;;;;;;10.20;5.47;;;;;;;13.07;63.66;99993.09;7388541;19;20631;-58
2023/04/24 06:57:54;;;;;;;10.00;5.40;;;;;;;13.05;63.44;100000.38;7389284;19;20035;-58
2023/04/24 07:00:23;;;;;;;9.85;5.50;;;;;;;13.02;63.78;100003.34;7388190;19;20073;-59
2023/04/24 07:02:51;;;;;;;10.35;6.05;;;;;;;12.97;63.59;100006.41;7393132;19;20488;-59
2023/04/24 07:05:19;;;;;;;9.38;6.13;;;;;;;12.93;63.90;100005.03;7394255;19;20518;-58
2023/04/24 07:07:50;;;;;;;11.73;6.35;;;;;;;13.00;64.07;99997.31;7393768;19;20014;-58
2023/04/24 07:10:17;;;;;;;12.05;7.10;;;;;;;12.97;63.84;100001.09;7395872;19;20066;-58
2023/04/24 07:12:45;;;;;;;10.75;6.75;;;;;;;13.04;64.01;99999.53;7395673;19;20018;-58
2023/04/24 07:15:12;;;;;;;10.00;6.63;;;;;;;13.00;64.18;99999.97;7394171;19;20010;-58
2023/04/24 07:17:43;;;;;;;12.48;7.18;;;;;;;12.99;64.15;100001.81;7395907;19;20370;-58
2023/04/24 07:20:11;;;;;;;11.02;6.53;;;;;;;13.22;63.59;99994.28;7394444;19;20022;-58
2023/04/24 07:22:38;;;;;;;10.27;6.80;;;;;;;13.34;63.06;100001.06;7393603;19;20019;-58
2023/04/24 07:25:06;;;;;;;12.48;7.32;;;;;;;13.48;62.64;99996.25;7396119;19;20018;-58
2023/04/24 07:27:34;;;;;;;13.57;7.47;;;;;;;13.57;62.84;100005.97;7394139;19;20093;-58
2023/04/24 07:30:03;;;;;;;12.32;6.82;;;;;;;13.50;62.73;100003.06;7395335;19;20022;-58
2023/04/24 07:32:30;;;;;;;10.82;6.72;;;;;;;13.55;62.36;100011.47;7394491;19;20043;-58
2023/04/24 07:34:57;;;;;;;12.95;6.65;;;;;;;13.69;61.84;100017.22;7394688;19;20082;-58
2023/04/24 07:37:24;;;;;;;10.25;6.30;;;;;;;13.71;61.81;100016.09;7395570;19;20019;-58
2023/04/24 07:39:51;;;;;;;9.18;6.47;;;;;;;13.64;61.41;100007.03;7394722;19;20094;-58
2023/04/24 07:42:18;;;;;;;8.20;5.60;;;;;;;13.75;61.19;100013.97;7394827;19;20017;-58
2023/04/24 07:44:47;;;;;;;10.43;6.63;;;;;;;13.90;60.67;100023.94;7394968;19;20017;-58
2023/04/24 07:47:17;;;;;;;9.70;5.95;;;;;;;13.77;61.18;100007.50;7394118;19;20021;-58
2023/04/24 07:49:44;;;;;;;10.15;6.10;;;;;;;13.69;61.08;100014.56;7392545;19;20130;-58
2023/04/24 07:52:11;;;;;;;8.55;6.05;;;;;;;13.79;60.97;100021.50;7392781;19;20751;-59
2023/04/24 07:54:38;;;;;;;9.38;5.63;;;;;;;13.75;61.20;100022.78;7394486;19;20027;-58
2023/04/24 07:57:06;;;;;;;11.60;6.65;;;;;;;13.79;61.20;100029.47;7394137;19;20092;-58
2023/04/24 07:59:33;;;;;;;11.00;6.40;;;;;;;13.81;60.61;100029.31;7393863;19;20011;-59
2023/04/24 08:02:01;;;;;;;11.40;5.80;;;;;;;14.00;60.41;100015.00;7393868;19;20026;-59
2023/04/24 08:04:28;;;;;;;9.80;6.03;;;;;;;13.92;59.93;100015.78;7391782;19;20039;-59
2023/04/24 08:06:55;;;;;;;10.00;5.78;;;;;;;13.84;59.91;100027.19;7391257;19;20464;-60
2023/04/24 08:09:22;;;;;;;9.48;6.10;;;;;;;13.79;59.78;100032.16;7392472;19;20090;-59
2023/04/24 08:11:53;;;;;;;10.25;5.68;;;;;;;13.72;60.04;100025.75;7393804;19;20022;-59
2023/04/24 08:14:20;;;;;;;9.63;5.85;;;;;;;13.82;60.03;100039.00;7391680;19;20011;-58
2023/04/24 08:16:47;;;;;;;11.43;5.85;;;;;;;13.81;60.20;100042.63;7393784;19;20051;-58
2023/04/24 08:19:14;;;;;;;10.32;6.45;;;;;;;13.51;60.66;100049.16;7394150;19;20063;-58
2023/04/24 08:21:41;;;;;;;13.73;6.78;;;;;;;13.30;61.60;100052.88;7393743;19;20515;-58
2023/04/24 08:24:08;;;;;;;10.43;6.22;;;;;;;13.36;61.38;100054.97;7392192;19;20037;-59
2023/04/24 08:26:35;;;;;;;10.73;6.45;;;;;;;13.56;61.19;100052.19;7390874;19;20077;-59
2023/04/24 08:29:02;;;;;;;11.18;6.38;;;;;;;13.46;61.13;100056.72;7393932;19;20380;-58
2023/04/24 08:31:29;;;;;;;12.80;6.50;;;;;;;13.51;61.51;100063.28;7393396;19;20022;-59
2023/04/24 08:33:56;;;;;;;10.30;6.00;;;;;;;13.76;60.56;100061.72;7391894;19;20026;-58
2023/04/24 08:36:23;;;;;;;10.55;6.90;;;;;;;14.00;59.73;100049.63;7393310;19;20127;-59
2023/04/24 08:39:05;;;;;;;11.93;6.50;;;;;;;14.09;58.75;100052.22;7391812;19;20500;-59
2023/04/24 08:41:34;;;;;;;10.75;6.85;;;;;;;14.19;58.92;100048.63;7392959;19;20035;-58
2023/04/24 08:44:02;;;;;;;11.65;6.70;;;;;;;14.11;58.66;100046.72;7389249;19;20023;-59
2023/04/24 08:46:30;;;;;;;9.48;6.50;;;;;;;14.08;58.75;100052.34;7390949;19;20039;-59
2023/04/24 08:48:58;;;;;;;13.32;6.65;;;;;;;14.04;58.90;100059.84;7392471;19;20047;-59
2023/04/24 08:51:26;;;;;;;9.75;6.60;;;;;;;14.02;58.72;100056.47;7393176;19;20363;-59
2023/04/24 08:53:54;;;;;;;11.13;6.28;;;;;;;13.93;58.36;100051.22;7391418;19;20015;-58
2023/04/24 08:56:23;;;;;;;10.05;6.22;;;;;;;13.75;58.91;100048.56;7390496;19;20031;-59
2023/04/24 08:58:52;;;;;;;8.98;5.97;;;;;;;13.69;58.74;100065.13;7392084;19;20184;-59
2023/04/24 09:01:20;;;;;;;10.85;6.43;;;;;;;13.61;58.77;100052.56;7392681;19;20479;-58
2023/04/24 09:03:50;;;;;;;11.63;6.50;;;;;;;13.59;58.95;100047.41;7391396;19;20239;-60
2023/04/24 09:06:17;;;;;;;10.40;6.00;;;;;;;13.64;59.28;100057.59;7392636;19;20085;-59
2023/04/24 09:08:46;;;;;;;12.40;6.97;;;;;;;13.69;58.74;100065.97;7389938;19;20488;-58
2023/04/24 09:11:13;;;;;;;13.45;6.95;;;;;;;13.65;59.01;100062.75;7391815;19;20030;-60
2023/04/24 09:13:41;;;;;;;11.80;7.18;;;;;;;13.74;58.84;100054.88;7390854;19;20420;-59
2023/04/24 09:16:08;;;;;;;12.95;7.82;;;;;;;13.86;58.42;100057.16;7389930;19;20018;-57
2023/04/24 09:18:35;;;;;;;10.50;7.15;;;;;;;13.90;58.19;100050.56;7391198;19;20353;-57
2023/04/24 09:21:09;;;;;;;13.50;7.47;;;;;;;13.83;58.05;100061.97;7392080;19;20011;-57
2023/04/24 09:23:36;;;;;;;11.73;7.63;;;;;;;13.82;57.96;100055.81;7388115;19;20535;-57
2023/04/24 09:26:07;;;;;;;12.35;7.82;;;;;;;13.66;58.26;100058.31;7389540;19;20539;-57
2023/04/24 09:28:39;;;;;;;11.80;7.63;;;;;;;13.61;58.64;100063.22;7387826;19;20026;-57
2023/04/24 09:31:13;;;;;;;12.98;8.52;;;;;;;13.71;58.85;100058.69;7391329;19;20023;-56
2023/04/24 09:33:56;;;;;;;14.55;9.18;;;;;;;13.62;59.79;100057.75;7390062;19;20015;-57
2023/04/24 09:36:36;;;;;;;14.52;10.80;;;;;;;13.57;60.05;100062.69;7391834;19;20021;-56
2023/04/24 09:39:06;;;;;;;14.13;10.90;;;;;;;13.46;60.30;100062.88;7390399;19;20019;-56
2023/04/24 09:41:33;;;;;;;15.00;10.68;;;;;;;13.31;60.46;100067.84;7391260;19;20029;-57
2023/04/24 09:44:17;;;;;;;17.80;11.43;;;;;;;13.30;60.42;100073.34;7388039;19;20014;-57
2023/04/24 09:46:45;;;;;;;;;;;;;;;13.17;61.19;100074.47;7391299;19;20105;-57
2023/04/24 09:49:15;;;;;;;15.02;10.18;;;;;;;13.22;61.29;100076.69;7390451;19;19933;-56
2023/04/24 09:51:42;;;;;;;14.63;10.85;;;;;;;13.26;61.57;100067.47;7390786;19;20089;-57
2023/04/24 09:54:18;;;;;;;14.07;10.45;;;;;;;13.31;60.96;100073.16;7388615;19;20026;-57
2023/04/24 09:56:46;;;;;;;16.63;10.50;;;;;;;13.31;61.03;100078.50;7389401;19;20018;-57
2023/04/24 09:59:15;;;;;;;15.25;9.35;;;;;;;13.28;60.94;100073.50;7390367;19;20090;-57
2023/04/24 10:01:44;;;;;;;13.27;9.77;;;;;;;13.33;60.68;100076.53;7390333;19;20551;-57
2023/04/24 10:04:31;;;;;;;13.45;9.80;;;;;;;13.34;60.42;100072.88;7388895;19;20023;-57
2023/04/24 10:06:59;;;;;;;14.98;9.13;;;;;;;13.26;60.53;100078.09;7390454;19;20035;-57
2023/04/24 10:09:26;;;;;;;13.98;10.07;;;;;;;13.22;60.72;100081.19;7389435;19;20017;-58
2023/04/24 10:11:54;;;;;;;14.02;9.63;;;;;;;13.15;60.81;100084.41;7390119;19;20026;-57
2023/04/24 10:14:23;;;;;;;12.65;8.68;;;;;;;13.27;60.73;100079.78;7388014;19;20019;-57
2023/04/24 10:16:53;;;;;;;13.45;9.25;;;;;;;13.37;60.54;100083.22;7390251;19;20029;-58
2023/04/24 10:19:20;;;;;;;14.13;9.82;;;;;;;13.26;60.83;100086.09;7389935;19;20456;-58
2023/04/24 10:21:48;;;;;;;14.00;8.93;;;;;;;13.29;60.46;100087.63;7390494;19;20090;-58
2023/04/24 10:24:20;;;;;;;12.85;8.82;;;;;;;13.33;60.43;100086.34;7388185;19;20014;-59
2023/04/24 10:26:48;;;;;;;11.48;8.70;;;;;;;13.27;60.49;100089.56;7388556;19;20022;-58
2023/04/24 10:29:18;;;;;;;12.05;8.48;;;;;;;13.21;60.66;100093.63;7389670;19;20039;-59
2023/04/24 10:31:46;;;;;;;13.45;8.23;;;;;;;13.10;61.22;100085.84;7389150;19;20086;-59
2023/04/24 10:34:17;;;;;;;14.27;8.02;;;;;;;13.07;61.56;100081.66;7387592;19;20094;-60
2023/04/24 10:36:52;;;;;;;11.73;7.95;;;;;;;13.06;61.54;100087.13;7392252;19;20031;-60
2023/04/24 10:39:24;;;;;;;10.95;7.72;;;;;;;13.05;61.48;100083.63;7397071;19;20022;-60
2023/04/24 10:41:57;;;;;;;11.55;7.43;;;;;;;13.06;61.49;100089.78;7395376;19;20710;-60
2023/04/24 10:44:25;;;;;;;11.52;7.68;;;;;;;13.15;60.89;100099.53;7392128;19;20554;-59
2023/04/24 10:46:57;;;;;;;11.85;6.95;;;;;;;13.02;61.63;100096.38;7396780;19;20018;-58
2023/04/24 10:49:29;;;;;;;11.35;7.93;;;;;;;13.10;61.55;100094.66;7395135;19;20026;-59
2023/04/24 10:52:02;;;;;;;10.77;7.15;;;;;;;13.21;61.41;100088.31;7394846;19;20066;-59
2023/04/24 10:54:44;;;;;;;10.65;7.18;;;;;;;13.17;61.63;100097.56;7393670;19;20192;-59
2023/04/24 10:57:19;;;;;;;;;;;;;;;12.97;62.39;100094.13;7396945;19;20029;-59
2023/04/24 10:59:48;;;;;;;10.18;6.97;;;;;;;13.00;62.54;100098.31;7396453;19;19922;-59
2023/04/24 11:02:15;;;;;;;11.93;7.25;;;;;;;13.21;61.96;100101.63;7396017;19;20049;-59
2023/04/24 11:04:45;;;;;;;11.27;7.10;;;;;;;13.26;61.80;100106.53;7396417;19;20022;-59
2023/04/24 11:07:13;;;;;;;11.88;8.10;;;;;;;13.31;61.65;100094.44;7394157;19;20014;-59
2023/04/24 11:09:43;;;;;;;10.25;6.82;;;;;;;13.33;61.46;100097.81;7395804;19;20513;-59
2023/04/24 11:12:12;;;;;;;10.45;7.45;;;;;;;13.30;61.63;100099.91;7395356;19;20043;-59
2023/04/24 11:14:58;;;;;;;10.02;7.18;;;;;;;13.33;61.41;100096.97;7395806;19;20374;-59
2023/04/24 11:17:39;;;;;;;10.55;7.00;;;;;;;13.31;62.00;100109.56;7396221;19;20022;-59
2023/04/24 11:20:11;;;;;;;8.18;5.45;;;;;;;13.20;61.97;100099.09;7395426;19;20425;-59
2023/04/24 11:23:06;;;;;;;9.57;5.68;;;;;;;13.27;61.96;100101.03;7394716;19;20021;-59
2023/04/24 11:25:33;;;;;;;8.80;5.90;;;;;;;13.18;62.49;100109.88;7395962;19;20028;-60
2023/04/24 11:28:05;;;;;;;9.07;6.70;;;;;;;13.14;62.86;100098.69;7392929;19;20014;-59
2023/04/24 11:30:33;;;;;;;10.52;6.35;;;;;;;13.04;63.30;100095.22;7392872;19;20018;-59